TAF KGJT
KGJT 270520Z 2706/2806 VRB04KT P6SM FEW250 FM271200 14008KT P6SM SKC FM272000 28008KT P6SM SCT250=
METAR KGJT
WC KGJT
WS KGJT
WV KGJT